sensor_id;sensor_type;location;lat;lon;timestamp;P1;durP1;ratioP1;P2;durP2;ratioP2
75499;SDS011;64076;51.466;7.260;2023-06-14T00:01:13;13.73;;;12.32;;
75499;SDS011;64076;51.466;7.260;2023-06-14T00:03:39;13.73;;;12.33;;
75499;SDS011;64076;51.466;7.260;2023-06-14T00:06:04;13.77;;;12.30;;
75499;SDS011;64076;51.466;7.260;2023-06-14T00:08:30;13.83;;;12.33;;
75499;SDS011;64076;51.466;7.260;2023-06-14T00:10:55;14.20;;;12.70;;
75499;SDS011;64076;51.466;7.260;2023-06-14T00:13:21;13.23;;;11.93;;
75499;SDS011;64076;51.466;7.260;2023-06-14T00:15:46;13.90;;;12.50;;
75499;SDS011;64076;51.466;7.260;2023-06-14T00:18:12;13.43;;;12.13;;
75499;SDS011;64076;51.466;7.260;2023-06-14T00:20:38;14.23;;;12.47;;
75499;SDS011;64076;51.466;7.260;2023-06-14T00:23:04;13.95;;;12.55;;
75499;SDS011;64076;51.466;7.260;2023-06-14T00:25:30;13.98;;;12.57;;
75499;SDS011;64076;51.466;7.260;2023-06-14T00:27:56;13.70;;;12.30;;
75499;SDS011;64076;51.466;7.260;2023-06-14T00:30:22;13.68;;;12.27;;
75499;SDS011;64076;51.466;7.260;2023-06-14T00:32:48;13.02;;;11.48;;
75499;SDS011;64076;51.466;7.260;2023-06-14T00:35:14;15.32;;;12.18;;
75499;SDS011;64076;51.466;7.260;2023-06-14T00:37:40;14.13;;;12.73;;
75499;SDS011;64076;51.466;7.260;2023-06-14T00:40:06;12.97;;;11.70;;
75499;SDS011;64076;51.466;7.260;2023-06-14T00:42:32;13.25;;;11.85;;
75499;SDS011;64076;51.466;7.260;2023-06-14T00:44:58;14.73;;;12.10;;
75499;SDS011;64076;51.466;7.260;2023-06-14T00:47:24;12.40;;;11.10;;
75499;SDS011;64076;51.466;7.260;2023-06-14T00:49:50;12.83;;;11.53;;
75499;SDS011;64076;51.466;7.260;2023-06-14T00:52:17;12.57;;;11.32;;
75499;SDS011;64076;51.466;7.260;2023-06-14T00:54:43;16.27;;;12.40;;
75499;SDS011;64076;51.466;7.260;2023-06-14T00:57:09;13.17;;;11.83;;
75499;SDS011;64076;51.466;7.260;2023-06-14T00:59:46;13.73;;;11.90;;
75499;SDS011;64076;51.466;7.260;2023-06-14T01:02:13;14.30;;;12.18;;
75499;SDS011;64076;51.466;7.260;2023-06-14T01:04:43;12.63;;;11.23;;
75499;SDS011;64076;51.466;7.260;2023-06-14T01:07:18;12.80;;;11.50;;
75499;SDS011;64076;51.466;7.260;2023-06-14T01:09:48;12.25;;;11.05;;
75499;SDS011;64076;51.466;7.260;2023-06-14T01:12:33;12.43;;;11.23;;
75499;SDS011;64076;51.466;7.260;2023-06-14T01:15:08;13.50;;;12.10;;
75499;SDS011;64076;51.466;7.260;2023-06-14T01:17:34;12.75;;;11.45;;
75499;SDS011;64076;51.466;7.260;2023-06-14T01:20:01;12.68;;;11.40;;
75499;SDS011;64076;51.466;7.260;2023-06-14T01:22:28;12.88;;;11.57;;
75499;SDS011;64076;51.466;7.260;2023-06-14T01:24:54;11.90;;;10.80;;
75499;SDS011;64076;51.466;7.260;2023-06-14T01:27:22;13.15;;;10.85;;
75499;SDS011;64076;51.466;7.260;2023-06-14T01:29:49;14.15;;;11.25;;
75499;SDS011;64076;51.466;7.260;2023-06-14T01:32:17;12.80;;;11.48;;
75499;SDS011;64076;51.466;7.260;2023-06-14T01:34:43;13.27;;;11.20;;
75499;SDS011;64076;51.466;7.260;2023-06-14T01:37:09;12.55;;;11.35;;
75499;SDS011;64076;51.466;7.260;2023-06-14T01:39:36;12.98;;;11.48;;
75499;SDS011;64076;51.466;7.260;2023-06-14T01:42:02;12.27;;;11.07;;
75499;SDS011;64076;51.466;7.260;2023-06-14T01:44:29;12.35;;;11.15;;
75499;SDS011;64076;51.466;7.260;2023-06-14T01:46:56;14.10;;;11.20;;
75499;SDS011;64076;51.466;7.260;2023-06-14T01:49:22;12.52;;;11.23;;
75499;SDS011;64076;51.466;7.260;2023-06-14T01:51:48;11.80;;;10.60;;
75499;SDS011;64076;51.466;7.260;2023-06-14T01:54:13;14.02;;;10.85;;
75499;SDS011;64076;51.466;7.260;2023-06-14T01:56:39;11.67;;;10.47;;
75499;SDS011;64076;51.466;7.260;2023-06-14T01:59:04;12.80;;;11.43;;
75499;SDS011;64076;51.466;7.260;2023-06-14T02:01:30;12.35;;;11.15;;
75499;SDS011;64076;51.466;7.260;2023-06-14T02:03:55;12.97;;;11.13;;
75499;SDS011;64076;51.466;7.260;2023-06-14T02:06:21;12.00;;;10.80;;
75499;SDS011;64076;51.466;7.260;2023-06-14T02:08:46;12.17;;;11.07;;
75499;SDS011;64076;51.466;7.260;2023-06-14T02:11:12;11.73;;;10.63;;
75499;SDS011;64076;51.466;7.260;2023-06-14T02:13:37;11.77;;;10.57;;
75499;SDS011;64076;51.466;7.260;2023-06-14T02:16:03;12.27;;;11.07;;
75499;SDS011;64076;51.466;7.260;2023-06-14T02:18:29;12.03;;;10.67;;
75499;SDS011;64076;51.466;7.260;2023-06-14T02:20:54;12.32;;;11.02;;
75499;SDS011;64076;51.466;7.260;2023-06-14T02:23:20;12.43;;;11.13;;
75499;SDS011;64076;51.466;7.260;2023-06-14T02:25:46;12.13;;;10.45;;
75499;SDS011;64076;51.466;7.260;2023-06-14T02:28:11;12.03;;;10.40;;
75499;SDS011;64076;51.466;7.260;2023-06-14T02:30:37;11.37;;;10.20;;
75499;SDS011;64076;51.466;7.260;2023-06-14T02:33:02;11.40;;;10.20;;
75499;SDS011;64076;51.466;7.260;2023-06-14T02:35:29;11.00;;;9.88;;
75499;SDS011;64076;51.466;7.260;2023-06-14T02:37:55;12.30;;;10.60;;
75499;SDS011;64076;51.466;7.260;2023-06-14T02:40:20;11.65;;;10.38;;
75499;SDS011;64076;51.466;7.260;2023-06-14T02:42:46;12.03;;;10.30;;
75499;SDS011;64076;51.466;7.260;2023-06-14T02:45:12;11.20;;;10.00;;
75499;SDS011;64076;51.466;7.260;2023-06-14T02:47:37;12.93;;;10.30;;
75499;SDS011;64076;51.466;7.260;2023-06-14T02:50:03;12.13;;;10.70;;
75499;SDS011;64076;51.466;7.260;2023-06-14T02:52:29;11.15;;;10.05;;
75499;SDS011;64076;51.466;7.260;2023-06-14T02:54:54;12.03;;;10.43;;
75499;SDS011;64076;51.466;7.260;2023-06-14T02:57:21;11.77;;;9.98;;
75499;SDS011;64076;51.466;7.260;2023-06-14T02:59:47;11.48;;;10.27;;
75499;SDS011;64076;51.466;7.260;2023-06-14T03:02:14;11.07;;;9.97;;
75499;SDS011;64076;51.466;7.260;2023-06-14T03:04:39;11.20;;;9.98;;
75499;SDS011;64076;51.466;7.260;2023-06-14T03:07:05;11.93;;;10.00;;
75499;SDS011;64076;51.466;7.260;2023-06-14T03:09:34;11.60;;;9.63;;
75499;SDS011;64076;51.466;7.260;2023-06-14T03:12:01;11.55;;;9.85;;
75499;SDS011;64076;51.466;7.260;2023-06-14T03:14:27;12.20;;;10.00;;
75499;SDS011;64076;51.466;7.260;2023-06-14T03:16:54;11.15;;;10.00;;
75499;SDS011;64076;51.466;7.260;2023-06-14T03:19:21;13.13;;;10.60;;
75499;SDS011;64076;51.466;7.260;2023-06-14T03:21:47;11.10;;;10.00;;
75499;SDS011;64076;51.466;7.260;2023-06-14T03:24:14;11.32;;;10.05;;
75499;SDS011;64076;51.466;7.260;2023-06-14T03:26:41;10.48;;;9.25;;
75499;SDS011;64076;51.466;7.260;2023-06-14T03:29:07;10.52;;;9.43;;
75499;SDS011;64076;51.466;7.260;2023-06-14T03:31:33;10.63;;;9.53;;
75499;SDS011;64076;51.466;7.260;2023-06-14T03:34:00;10.15;;;9.15;;
75499;SDS011;64076;51.466;7.260;2023-06-14T03:36:25;11.13;;;9.77;;
75499;SDS011;64076;51.466;7.260;2023-06-14T03:38:52;11.30;;;9.63;;
75499;SDS011;64076;51.466;7.260;2023-06-14T03:41:18;13.07;;;9.80;;
75499;SDS011;64076;51.466;7.260;2023-06-14T03:43:44;10.30;;;9.30;;
75499;SDS011;64076;51.466;7.260;2023-06-14T03:46:10;10.73;;;9.63;;
75499;SDS011;64076;51.466;7.260;2023-06-14T03:48:35;10.33;;;9.10;;
75499;SDS011;64076;51.466;7.260;2023-06-14T03:51:02;11.13;;;9.30;;
75499;SDS011;64076;51.466;7.260;2023-06-14T03:53:27;10.13;;;9.13;;
75499;SDS011;64076;51.466;7.260;2023-06-14T03:55:54;10.55;;;9.27;;
75499;SDS011;64076;51.466;7.260;2023-06-14T03:58:20;10.25;;;8.65;;
75499;SDS011;64076;51.466;7.260;2023-06-14T04:00:46;10.67;;;8.90;;
75499;SDS011;64076;51.466;7.260;2023-06-14T04:03:12;9.60;;;8.60;;
75499;SDS011;64076;51.466;7.260;2023-06-14T04:05:40;12.20;;;9.07;;
75499;SDS011;64076;51.466;7.260;2023-06-14T04:08:14;10.80;;;8.77;;
75499;SDS011;64076;51.466;7.260;2023-06-14T04:10:39;10.38;;;9.27;;
75499;SDS011;64076;51.466;7.260;2023-06-14T04:13:05;10.37;;;9.30;;
75499;SDS011;64076;51.466;7.260;2023-06-14T04:15:32;10.75;;;9.30;;
75499;SDS011;64076;51.466;7.260;2023-06-14T04:17:57;11.77;;;9.30;;
75499;SDS011;64076;51.466;7.260;2023-06-14T04:20:23;10.70;;;9.20;;
75499;SDS011;64076;51.466;7.260;2023-06-14T04:22:51;10.23;;;9.00;;
75499;SDS011;64076;51.466;7.260;2023-06-14T04:25:22;10.17;;;9.17;;
75499;SDS011;64076;51.466;7.260;2023-06-14T04:27:48;10.90;;;8.13;;
75499;SDS011;64076;51.466;7.260;2023-06-14T04:30:14;9.93;;;8.90;;
75499;SDS011;64076;51.466;7.260;2023-06-14T04:32:40;10.60;;;9.50;;
75499;SDS011;64076;51.466;7.260;2023-06-14T04:35:06;11.55;;;9.30;;
75499;SDS011;64076;51.466;7.260;2023-06-14T04:37:33;9.85;;;8.85;;
75499;SDS011;64076;51.466;7.260;2023-06-14T04:39:58;10.23;;;9.07;;
75499;SDS011;64076;51.466;7.260;2023-06-14T04:42:24;11.30;;;10.10;;
75499;SDS011;64076;51.466;7.260;2023-06-14T04:44:50;13.40;;;10.60;;
75499;SDS011;64076;51.466;7.260;2023-06-14T04:47:20;11.40;;;10.13;;
75499;SDS011;64076;51.466;7.260;2023-06-14T04:49:46;10.98;;;9.88;;
75499;SDS011;64076;51.466;7.260;2023-06-14T04:52:12;10.10;;;8.87;;
75499;SDS011;64076;51.466;7.260;2023-06-14T04:54:38;10.50;;;8.75;;
75499;SDS011;64076;51.466;7.260;2023-06-14T04:57:07;10.60;;;8.60;;
75499;SDS011;64076;51.466;7.260;2023-06-14T04:59:34;9.27;;;8.30;;
75499;SDS011;64076;51.466;7.260;2023-06-14T05:02:00;9.52;;;8.30;;
75499;SDS011;64076;51.466;7.260;2023-06-14T05:04:26;9.38;;;8.38;;
75499;SDS011;64076;51.466;7.260;2023-06-14T05:06:53;9.55;;;7.70;;
75499;SDS011;64076;51.466;7.260;2023-06-14T05:09:22;8.88;;;7.90;;
75499;SDS011;64076;51.466;7.260;2023-06-14T05:11:47;8.93;;;8.03;;
75499;SDS011;64076;51.466;7.260;2023-06-14T05:14:13;8.23;;;7.33;;
75499;SDS011;64076;51.466;7.260;2023-06-14T05:16:39;7.82;;;7.03;;
75499;SDS011;64076;51.466;7.260;2023-06-14T05:19:05;7.55;;;6.55;;
75499;SDS011;64076;51.466;7.260;2023-06-14T05:21:31;8.25;;;6.57;;
75499;SDS011;64076;51.466;7.260;2023-06-14T05:24:00;7.38;;;6.18;;
75499;SDS011;64076;51.466;7.260;2023-06-14T05:26:26;6.47;;;5.37;;
75499;SDS011;64076;51.466;7.260;2023-06-14T05:28:58;5.90;;;5.30;;
75499;SDS011;64076;51.466;7.260;2023-06-14T05:31:25;6.13;;;4.67;;
75499;SDS011;64076;51.466;7.260;2023-06-14T05:33:51;5.70;;;4.85;;
75499;SDS011;64076;51.466;7.260;2023-06-14T05:36:17;6.47;;;4.90;;
75499;SDS011;64076;51.466;7.260;2023-06-14T05:38:43;6.70;;;4.27;;
75499;SDS011;64076;51.466;7.260;2023-06-14T05:41:08;6.20;;;4.75;;
75499;SDS011;64076;51.466;7.260;2023-06-14T05:43:34;5.23;;;4.47;;
75499;SDS011;64076;51.466;7.260;2023-06-14T05:45:59;5.07;;;4.00;;
75499;SDS011;64076;51.466;7.260;2023-06-14T05:48:25;5.20;;;4.10;;
75499;SDS011;64076;51.466;7.260;2023-06-14T05:50:51;5.35;;;4.10;;
75499;SDS011;64076;51.466;7.260;2023-06-14T05:53:16;4.97;;;3.50;;
75499;SDS011;64076;51.466;7.260;2023-06-14T05:55:42;8.97;;;3.87;;
75499;SDS011;64076;51.466;7.260;2023-06-14T05:58:07;42.72;;;5.70;;
75499;SDS011;64076;51.466;7.260;2023-06-14T06:00:33;30.90;;;4.67;;
75499;SDS011;64076;51.466;7.260;2023-06-14T06:02:59;28.13;;;4.63;;
75499;SDS011;64076;51.466;7.260;2023-06-14T06:05:26;16.50;;;4.40;;
75499;SDS011;64076;51.466;7.260;2023-06-14T06:07:51;8.85;;;3.03;;
75499;SDS011;64076;51.466;7.260;2023-06-14T06:10:17;12.87;;;4.23;;
75499;SDS011;64076;51.466;7.260;2023-06-14T06:12:43;11.35;;;3.58;;
75499;SDS011;64076;51.466;7.260;2023-06-14T06:15:08;5.17;;;3.00;;
75499;SDS011;64076;51.466;7.260;2023-06-14T06:17:37;8.68;;;3.03;;
75499;SDS011;64076;51.466;7.260;2023-06-14T06:20:03;5.03;;;3.20;;
75499;SDS011;64076;51.466;7.260;2023-06-14T06:22:31;5.30;;;3.10;;
75499;SDS011;64076;51.466;7.260;2023-06-14T06:24:56;7.40;;;3.77;;
75499;SDS011;64076;51.466;7.260;2023-06-14T06:27:22;4.70;;;3.07;;
75499;SDS011;64076;51.466;7.260;2023-06-14T06:29:47;6.73;;;2.83;;
75499;SDS011;64076;51.466;7.260;2023-06-14T06:32:14;7.38;;;2.78;;
75499;SDS011;64076;51.466;7.260;2023-06-14T06:34:40;4.30;;;3.07;;
75499;SDS011;64076;51.466;7.260;2023-06-14T06:37:05;3.42;;;2.53;;
75499;SDS011;64076;51.466;7.260;2023-06-14T06:39:31;5.50;;;3.13;;
75499;SDS011;64076;51.466;7.260;2023-06-14T06:41:56;5.30;;;2.80;;
75499;SDS011;64076;51.466;7.260;2023-06-14T06:44:22;3.30;;;2.87;;
75499;SDS011;64076;51.466;7.260;2023-06-14T06:46:48;3.43;;;2.43;;
75499;SDS011;64076;51.466;7.260;2023-06-14T06:49:13;5.60;;;2.83;;
75499;SDS011;64076;51.466;7.260;2023-06-14T06:51:42;6.40;;;2.90;;
75499;SDS011;64076;51.466;7.260;2023-06-14T06:54:08;5.28;;;2.78;;
75499;SDS011;64076;51.466;7.260;2023-06-14T06:56:34;5.22;;;2.50;;
75499;SDS011;64076;51.466;7.260;2023-06-14T06:59:00;6.53;;;2.60;;
75499;SDS011;64076;51.466;7.260;2023-06-14T07:01:26;8.85;;;2.78;;
75499;SDS011;64076;51.466;7.260;2023-06-14T07:03:54;6.03;;;2.85;;
75499;SDS011;64076;51.466;7.260;2023-06-14T07:06:20;5.55;;;2.60;;
75499;SDS011;64076;51.466;7.260;2023-06-14T07:08:45;6.20;;;2.63;;
75499;SDS011;64076;51.466;7.260;2023-06-14T07:11:13;5.15;;;2.55;;
75499;SDS011;64076;51.466;7.260;2023-06-14T07:13:39;9.48;;;2.88;;
75499;SDS011;64076;51.466;7.260;2023-06-14T07:16:04;8.23;;;2.37;;
75499;SDS011;64076;51.466;7.260;2023-06-14T07:18:30;5.80;;;2.30;;
75499;SDS011;64076;51.466;7.260;2023-06-14T07:20:56;8.60;;;2.30;;
75499;SDS011;64076;51.466;7.260;2023-06-14T07:23:22;4.80;;;2.35;;
75499;SDS011;64076;51.466;7.260;2023-06-14T07:25:50;6.13;;;2.00;;
75499;SDS011;64076;51.466;7.260;2023-06-14T07:28:16;4.93;;;2.00;;
75499;SDS011;64076;51.466;7.260;2023-06-14T07:30:43;8.23;;;2.55;;
75499;SDS011;64076;51.466;7.260;2023-06-14T07:33:09;15.47;;;2.77;;
75499;SDS011;64076;51.466;7.260;2023-06-14T07:35:35;4.72;;;1.95;;
75499;SDS011;64076;51.466;7.260;2023-06-14T07:38:00;4.73;;;1.90;;
75499;SDS011;64076;51.466;7.260;2023-06-14T07:40:26;4.60;;;1.80;;
75499;SDS011;64076;51.466;7.260;2023-06-14T07:42:52;2.97;;;1.70;;
75499;SDS011;64076;51.466;7.260;2023-06-14T07:45:21;5.53;;;2.08;;
75499;SDS011;64076;51.466;7.260;2023-06-14T07:47:46;3.90;;;1.80;;
75499;SDS011;64076;51.466;7.260;2023-06-14T07:50:12;2.65;;;1.67;;
75499;SDS011;64076;51.466;7.260;2023-06-14T07:52:38;2.97;;;1.70;;
75499;SDS011;64076;51.466;7.260;2023-06-14T07:55:04;4.45;;;1.65;;
75499;SDS011;64076;51.466;7.260;2023-06-14T07:57:30;3.60;;;1.60;;
75499;SDS011;64076;51.466;7.260;2023-06-14T07:59:56;5.73;;;1.87;;
75499;SDS011;64076;51.466;7.260;2023-06-14T08:02:21;6.25;;;1.90;;
75499;SDS011;64076;51.466;7.260;2023-06-14T08:04:47;4.40;;;1.67;;
75499;SDS011;64076;51.466;7.260;2023-06-14T08:07:13;3.88;;;1.40;;
75499;SDS011;64076;51.466;7.260;2023-06-14T08:09:39;3.85;;;1.80;;
75499;SDS011;64076;51.466;7.260;2023-06-14T08:12:05;4.93;;;1.60;;
75499;SDS011;64076;51.466;7.260;2023-06-14T08:14:37;4.00;;;1.50;;
75499;SDS011;64076;51.466;7.260;2023-06-14T08:17:03;3.92;;;1.42;;
75499;SDS011;64076;51.466;7.260;2023-06-14T08:19:29;3.30;;;1.60;;
75499;SDS011;64076;51.466;7.260;2023-06-14T08:21:55;3.78;;;1.45;;
75499;SDS011;64076;51.466;7.260;2023-06-14T08:24:21;3.07;;;1.30;;
75499;SDS011;64076;51.466;7.260;2023-06-14T08:26:49;2.00;;;1.40;;
75499;SDS011;64076;51.466;7.260;2023-06-14T08:29:15;3.78;;;1.73;;
75499;SDS011;64076;51.466;7.260;2023-06-14T08:31:40;2.90;;;1.10;;
75499;SDS011;64076;51.466;7.260;2023-06-14T08:34:06;3.33;;;1.40;;
75499;SDS011;64076;51.466;7.260;2023-06-14T08:36:32;3.27;;;1.60;;
75499;SDS011;64076;51.466;7.260;2023-06-14T08:38:57;2.72;;;1.60;;
75499;SDS011;64076;51.466;7.260;2023-06-14T08:41:23;3.30;;;1.60;;
75499;SDS011;64076;51.466;7.260;2023-06-14T08:43:52;3.80;;;1.90;;
75499;SDS011;64076;51.466;7.260;2023-06-14T08:46:18;2.50;;;1.40;;
75499;SDS011;64076;51.466;7.260;2023-06-14T08:48:50;2.78;;;1.55;;
75499;SDS011;64076;51.466;7.260;2023-06-14T08:51:18;2.17;;;1.30;;
75499;SDS011;64076;51.466;7.260;2023-06-14T08:53:44;4.63;;;1.33;;
75499;SDS011;64076;51.466;7.260;2023-06-14T08:56:11;2.65;;;1.60;;
75499;SDS011;64076;51.466;7.260;2023-06-14T08:58:44;3.70;;;1.50;;
75499;SDS011;64076;51.466;7.260;2023-06-14T09:01:13;3.28;;;1.58;;
75499;SDS011;64076;51.466;7.260;2023-06-14T09:03:40;3.95;;;1.80;;
75499;SDS011;64076;51.466;7.260;2023-06-14T09:06:06;8.00;;;2.00;;
75499;SDS011;64076;51.466;7.260;2023-06-14T09:08:34;4.30;;;1.83;;
75499;SDS011;64076;51.466;7.260;2023-06-14T09:11:01;4.70;;;2.00;;
75499;SDS011;64076;51.466;7.260;2023-06-14T09:13:26;9.60;;;2.38;;
75499;SDS011;64076;51.466;7.260;2023-06-14T09:15:52;6.90;;;2.20;;
75499;SDS011;64076;51.466;7.260;2023-06-14T09:18:18;4.88;;;2.10;;
75499;SDS011;64076;51.466;7.260;2023-06-14T09:20:45;3.37;;;2.10;;
75499;SDS011;64076;51.466;7.260;2023-06-14T09:23:12;4.57;;;1.92;;
75499;SDS011;64076;51.466;7.260;2023-06-14T09:25:41;3.97;;;1.88;;
75499;SDS011;64076;51.466;7.260;2023-06-14T09:28:08;4.53;;;2.13;;
75499;SDS011;64076;51.466;7.260;2023-06-14T09:30:36;5.80;;;1.70;;
75499;SDS011;64076;51.466;7.260;2023-06-14T09:33:02;6.28;;;1.95;;
75499;SDS011;64076;51.466;7.260;2023-06-14T09:35:28;4.82;;;2.15;;
75499;SDS011;64076;51.466;7.260;2023-06-14T09:37:56;4.60;;;1.40;;
75499;SDS011;64076;51.466;7.260;2023-06-14T09:40:22;3.67;;;1.30;;
75499;SDS011;64076;51.466;7.260;2023-06-14T09:42:48;18.08;;;2.65;;
75499;SDS011;64076;51.466;7.260;2023-06-14T09:45:14;50.77;;;6.50;;
75499;SDS011;64076;51.466;7.260;2023-06-14T09:47:46;35.88;;;4.13;;
75499;SDS011;64076;51.466;7.260;2023-06-14T09:50:14;9.63;;;2.35;;
75499;SDS011;64076;51.466;7.260;2023-06-14T09:52:40;6.55;;;1.70;;
75499;SDS011;64076;51.466;7.260;2023-06-14T09:55:11;3.90;;;1.67;;
75499;SDS011;64076;51.466;7.260;2023-06-14T09:57:40;5.00;;;1.70;;
75499;SDS011;64076;51.466;7.260;2023-06-14T10:00:08;4.22;;;1.70;;
75499;SDS011;64076;51.466;7.260;2023-06-14T10:02:36;5.55;;;1.73;;
75499;SDS011;64076;51.466;7.260;2023-06-14T10:08:19;3.07;;;1.60;;
75499;SDS011;64076;51.466;7.260;2023-06-14T10:10:28;3.55;;;1.58;;
75499;SDS011;64076;51.466;7.260;2023-06-14T10:12:55;4.70;;;1.80;;
75499;SDS011;64076;51.466;7.260;2023-06-14T10:15:28;6.15;;;1.90;;
75499;SDS011;64076;51.466;7.260;2023-06-14T10:21:32;2.75;;;1.50;;
75499;SDS011;64076;51.466;7.260;2023-06-14T10:23:59;2.20;;;1.30;;
75499;SDS011;64076;51.466;7.260;2023-06-14T10:26:29;2.03;;;1.25;;
75499;SDS011;64076;51.466;7.260;2023-06-14T10:29:06;2.53;;;1.40;;
75499;SDS011;64076;51.466;7.260;2023-06-14T10:31:39;3.08;;;1.45;;
75499;SDS011;64076;51.466;7.260;2023-06-14T10:34:05;2.97;;;1.42;;
75499;SDS011;64076;51.466;7.260;2023-06-14T10:36:31;2.63;;;1.30;;
75499;SDS011;64076;51.466;7.260;2023-06-14T10:41:41;16.25;;;1.90;;
75499;SDS011;64076;51.466;7.260;2023-06-14T10:49:50;3.90;;;1.73;;
75499;SDS011;64076;51.466;7.260;2023-06-14T10:52:18;5.43;;;1.48;;
75499;SDS011;64076;51.466;7.260;2023-06-14T10:57:43;4.97;;;1.60;;
75499;SDS011;64076;51.466;7.260;2023-06-14T11:00:22;3.38;;;1.40;;
75499;SDS011;64076;51.466;7.260;2023-06-14T11:05:51;12.88;;;2.42;;
75499;SDS011;64076;51.466;7.260;2023-06-14T11:11:05;21.85;;;2.33;;
75499;SDS011;64076;51.466;7.260;2023-06-14T11:13:32;12.25;;;1.70;;
75499;SDS011;64076;51.466;7.260;2023-06-14T11:15:57;6.47;;;1.37;;
75499;SDS011;64076;51.466;7.260;2023-06-14T11:18:24;9.00;;;1.38;;
75499;SDS011;64076;51.466;7.260;2023-06-14T11:20:52;5.63;;;1.20;;
75499;SDS011;64076;51.466;7.260;2023-06-14T11:23:18;4.00;;;1.27;;
75499;SDS011;64076;51.466;7.260;2023-06-14T11:25:49;3.35;;;1.15;;
75499;SDS011;64076;51.466;7.260;2023-06-14T11:28:15;2.00;;;1.00;;
75499;SDS011;64076;51.466;7.260;2023-06-14T11:30:40;2.93;;;1.07;;
75499;SDS011;64076;51.466;7.260;2023-06-14T11:33:09;3.50;;;1.40;;
75499;SDS011;64076;51.466;7.260;2023-06-14T11:35:35;3.78;;;1.13;;
75499;SDS011;64076;51.466;7.260;2023-06-14T11:38:01;2.03;;;1.40;;
75499;SDS011;64076;51.466;7.260;2023-06-14T11:40:27;3.00;;;1.23;;
75499;SDS011;64076;51.466;7.260;2023-06-14T11:43:00;1.80;;;1.10;;
75499;SDS011;64076;51.466;7.260;2023-06-14T11:45:26;2.60;;;1.20;;
75499;SDS011;64076;51.466;7.260;2023-06-14T11:47:54;2.40;;;1.40;;
75499;SDS011;64076;51.466;7.260;2023-06-14T11:50:23;2.15;;;1.55;;
75499;SDS011;64076;51.466;7.260;2023-06-14T11:52:56;2.30;;;1.50;;
75499;SDS011;64076;51.466;7.260;2023-06-14T11:55:25;1.80;;;1.33;;
75499;SDS011;64076;51.466;7.260;2023-06-14T11:57:50;1.90;;;1.23;;
75499;SDS011;64076;51.466;7.260;2023-06-14T12:00:18;1.95;;;1.40;;
75499;SDS011;64076;51.466;7.260;2023-06-14T12:02:52;2.53;;;1.70;;
75499;SDS011;64076;51.466;7.260;2023-06-14T12:05:21;3.42;;;1.50;;
75499;SDS011;64076;51.466;7.260;2023-06-14T12:07:48;3.17;;;1.60;;
75499;SDS011;64076;51.466;7.260;2023-06-14T12:10:15;2.80;;;1.40;;
75499;SDS011;64076;51.466;7.260;2023-06-14T12:12:41;4.15;;;1.60;;
75499;SDS011;64076;51.466;7.260;2023-06-14T12:15:07;4.87;;;1.37;;
75499;SDS011;64076;51.466;7.260;2023-06-14T12:17:38;3.75;;;1.65;;
75499;SDS011;64076;51.466;7.260;2023-06-14T12:20:07;4.32;;;1.70;;
75499;SDS011;64076;51.466;7.260;2023-06-14T12:22:54;2.15;;;1.48;;
75499;SDS011;64076;51.466;7.260;2023-06-14T12:25:26;1.90;;;1.50;;
75499;SDS011;64076;51.466;7.260;2023-06-14T12:27:55;2.30;;;1.42;;
75499;SDS011;64076;51.466;7.260;2023-06-14T12:30:21;3.08;;;1.67;;
75499;SDS011;64076;51.466;7.260;2023-06-14T12:32:46;2.10;;;1.40;;
75499;SDS011;64076;51.466;7.260;2023-06-14T12:35:13;2.70;;;1.60;;
75499;SDS011;64076;51.466;7.260;2023-06-14T12:37:38;2.13;;;1.60;;
75499;SDS011;64076;51.466;7.260;2023-06-14T12:40:04;1.73;;;1.50;;
75499;SDS011;64076;51.466;7.260;2023-06-14T12:42:31;4.80;;;1.80;;
75499;SDS011;64076;51.466;7.260;2023-06-14T12:44:58;2.17;;;1.75;;
75499;SDS011;64076;51.466;7.260;2023-06-14T12:47:23;3.80;;;1.53;;
75499;SDS011;64076;51.466;7.260;2023-06-14T12:49:49;5.65;;;2.33;;
75499;SDS011;64076;51.466;7.260;2023-06-14T12:52:15;6.57;;;3.00;;
75499;SDS011;64076;51.466;7.260;2023-06-14T12:54:40;3.90;;;2.57;;
75499;SDS011;64076;51.466;7.260;2023-06-14T12:57:06;7.00;;;2.27;;
75499;SDS011;64076;51.466;7.260;2023-06-14T12:59:32;3.67;;;2.10;;
75499;SDS011;64076;51.466;7.260;2023-06-14T13:01:59;9.30;;;2.72;;
75499;SDS011;64076;51.466;7.260;2023-06-14T13:04:35;3.77;;;1.90;;
75499;SDS011;64076;51.466;7.260;2023-06-14T13:07:00;6.15;;;2.17;;
75499;SDS011;64076;51.466;7.260;2023-06-14T13:09:26;5.27;;;2.03;;
75499;SDS011;64076;51.466;7.260;2023-06-14T13:11:51;3.75;;;2.08;;
75499;SDS011;64076;51.466;7.260;2023-06-14T13:14:17;5.70;;;1.63;;
75499;SDS011;64076;51.466;7.260;2023-06-14T13:16:43;3.63;;;1.90;;
75499;SDS011;64076;51.466;7.260;2023-06-14T13:19:09;3.50;;;1.77;;
75499;SDS011;64076;51.466;7.260;2023-06-14T13:21:34;2.80;;;1.73;;
75499;SDS011;64076;51.466;7.260;2023-06-14T13:24:00;3.03;;;1.77;;
75499;SDS011;64076;51.466;7.260;2023-06-14T13:26:25;4.13;;;1.60;;
75499;SDS011;64076;51.466;7.260;2023-06-14T13:28:51;2.40;;;1.50;;
75499;SDS011;64076;51.466;7.260;2023-06-14T13:31:17;5.20;;;2.10;;
75499;SDS011;64076;51.466;7.260;2023-06-14T13:33:43;5.80;;;1.80;;
75499;SDS011;64076;51.466;7.260;2023-06-14T13:36:08;5.83;;;2.23;;
75499;SDS011;64076;51.466;7.260;2023-06-14T13:38:35;4.78;;;2.10;;
75499;SDS011;64076;51.466;7.260;2023-06-14T13:41:00;3.07;;;1.93;;
75499;SDS011;64076;51.466;7.260;2023-06-14T13:43:26;5.40;;;2.10;;
75499;SDS011;64076;51.466;7.260;2023-06-14T13:45:51;4.50;;;2.07;;
75499;SDS011;64076;51.466;7.260;2023-06-14T13:48:17;3.47;;;2.10;;
75499;SDS011;64076;51.466;7.260;2023-06-14T13:50:43;2.67;;;1.50;;
75499;SDS011;64076;51.466;7.260;2023-06-14T13:53:09;2.85;;;1.77;;
75499;SDS011;64076;51.466;7.260;2023-06-14T13:55:34;2.47;;;1.63;;
75499;SDS011;64076;51.466;7.260;2023-06-14T13:58:00;2.42;;;1.80;;
75499;SDS011;64076;51.466;7.260;2023-06-14T14:00:26;3.60;;;1.80;;
75499;SDS011;64076;51.466;7.260;2023-06-14T14:02:52;2.27;;;1.60;;
75499;SDS011;64076;51.466;7.260;2023-06-14T14:05:19;2.30;;;1.50;;
75499;SDS011;64076;51.466;7.260;2023-06-14T14:07:45;4.90;;;1.90;;
75499;SDS011;64076;51.466;7.260;2023-06-14T14:10:11;3.50;;;2.00;;
75499;SDS011;64076;51.466;7.260;2023-06-14T14:12:38;2.35;;;1.80;;
75499;SDS011;64076;51.466;7.260;2023-06-14T14:15:04;2.30;;;1.90;;
75499;SDS011;64076;51.466;7.260;2023-06-14T14:17:32;3.83;;;1.90;;
75499;SDS011;64076;51.466;7.260;2023-06-14T14:19:58;3.20;;;1.83;;
75499;SDS011;64076;51.466;7.260;2023-06-14T14:22:23;3.28;;;1.80;;
75499;SDS011;64076;51.466;7.260;2023-06-14T14:24:49;3.40;;;1.97;;
75499;SDS011;64076;51.466;7.260;2023-06-14T14:27:15;3.33;;;2.08;;
75499;SDS011;64076;51.466;7.260;2023-06-14T14:29:40;5.70;;;2.30;;
75499;SDS011;64076;51.466;7.260;2023-06-14T14:32:06;2.43;;;2.00;;
75499;SDS011;64076;51.466;7.260;2023-06-14T14:34:32;3.17;;;1.90;;
75499;SDS011;64076;51.466;7.260;2023-06-14T14:36:57;3.93;;;2.40;;
75499;SDS011;64076;51.466;7.260;2023-06-14T14:39:23;4.10;;;2.40;;
75499;SDS011;64076;51.466;7.260;2023-06-14T14:41:49;2.37;;;2.17;;
75499;SDS011;64076;51.466;7.260;2023-06-14T14:44:15;4.25;;;2.25;;
75499;SDS011;64076;51.466;7.260;2023-06-14T14:46:40;2.93;;;2.63;;
75499;SDS011;64076;51.466;7.260;2023-06-14T14:49:06;3.55;;;2.42;;
75499;SDS011;64076;51.466;7.260;2023-06-14T14:51:32;2.80;;;2.30;;
75499;SDS011;64076;51.466;7.260;2023-06-14T14:53:57;2.80;;;2.20;;
75499;SDS011;64076;51.466;7.260;2023-06-14T14:56:23;3.10;;;2.70;;
75499;SDS011;64076;51.466;7.260;2023-06-14T14:58:48;2.57;;;2.37;;
75499;SDS011;64076;51.466;7.260;2023-06-14T15:01:14;2.50;;;2.30;;